sensor_id;sensor_type;location;lat;lon;timestamp;P1;durP1;ratioP1;P2;durP2;ratioP2
69419;SDS011;71621;52.030;113.516;2023-08-24T00:00:08;7.20;;;2.97;;
69419;SDS011;71621;52.030;113.516;2023-08-24T00:03:12;9.63;;;3.70;;
69419;SDS011;71621;52.030;113.516;2023-08-24T00:06:16;7.15;;;3.30;;
69419;SDS011;71621;52.030;113.516;2023-08-24T00:09:20;9.82;;;3.42;;
69419;SDS011;71621;52.030;113.516;2023-08-24T00:12:24;12.37;;;3.80;;
69419;SDS011;71621;52.030;113.516;2023-08-24T00:15:28;8.05;;;3.67;;
69419;SDS011;71621;52.030;113.516;2023-08-24T00:18:32;11.00;;;3.72;;
69419;SDS011;71621;52.030;113.516;2023-08-24T00:21:36;11.52;;;3.75;;
69419;SDS011;71621;52.030;113.516;2023-08-24T00:24:40;11.75;;;4.47;;
69419;SDS011;71621;52.030;113.516;2023-08-24T00:27:43;15.53;;;5.17;;
69419;SDS011;71621;52.030;113.516;2023-08-24T00:30:47;14.38;;;5.00;;
69419;SDS011;71621;52.030;113.516;2023-08-24T00:33:50;14.70;;;5.18;;
69419;SDS011;71621;52.030;113.516;2023-08-24T00:36:54;11.05;;;4.38;;
69419;SDS011;71621;52.030;113.516;2023-08-24T00:40:01;12.75;;;4.90;;
69419;SDS011;71621;52.030;113.516;2023-08-24T00:43:12;13.60;;;4.27;;
69419;SDS011;71621;52.030;113.516;2023-08-24T00:46:16;12.30;;;4.80;;
69419;SDS011;71621;52.030;113.516;2023-08-24T00:49:21;14.63;;;4.00;;
69419;SDS011;71621;52.030;113.516;2023-08-24T00:52:25;10.50;;;4.18;;
69419;SDS011;71621;52.030;113.516;2023-08-24T00:55:32;12.18;;;4.15;;
69419;SDS011;71621;52.030;113.516;2023-08-24T00:58:35;11.43;;;4.37;;
69419;SDS011;71621;52.030;113.516;2023-08-24T01:01:41;12.20;;;4.97;;
69419;SDS011;71621;52.030;113.516;2023-08-24T01:04:47;13.23;;;5.20;;
69419;SDS011;71621;52.030;113.516;2023-08-24T01:07:51;10.40;;;4.63;;
69419;SDS011;71621;52.030;113.516;2023-08-24T01:14:30;15.03;;;5.60;;
69419;SDS011;71621;52.030;113.516;2023-08-24T01:17:33;24.88;;;7.15;;
69419;SDS011;71621;52.030;113.516;2023-08-24T01:20:39;20.25;;;6.35;;
69419;SDS011;71621;52.030;113.516;2023-08-24T01:23:58;27.30;;;6.40;;
69419;SDS011;71621;52.030;113.516;2023-08-24T01:27:08;20.33;;;6.75;;
69419;SDS011;71621;52.030;113.516;2023-08-24T01:30:13;19.33;;;5.77;;
69419;SDS011;71621;52.030;113.516;2023-08-24T01:33:17;30.02;;;6.78;;
69419;SDS011;71621;52.030;113.516;2023-08-24T01:36:21;18.10;;;5.50;;
69419;SDS011;71621;52.030;113.516;2023-08-24T01:39:31;15.30;;;5.03;;
69419;SDS011;71621;52.030;113.516;2023-08-24T01:46:07;14.60;;;5.63;;
69419;SDS011;71621;52.030;113.516;2023-08-24T01:49:12;17.77;;;6.10;;
69419;SDS011;71621;52.030;113.516;2023-08-24T01:52:17;15.85;;;5.90;;
69419;SDS011;71621;52.030;113.516;2023-08-24T01:55:21;13.00;;;5.57;;
69419;SDS011;71621;52.030;113.516;2023-08-24T01:58:26;15.10;;;6.10;;
69419;SDS011;71621;52.030;113.516;2023-08-24T02:01:30;13.87;;;4.77;;
69419;SDS011;71621;52.030;113.516;2023-08-24T02:04:34;13.57;;;5.63;;
69419;SDS011;71621;52.030;113.516;2023-08-24T02:07:38;11.80;;;4.22;;
69419;SDS011;71621;52.030;113.516;2023-08-24T02:10:43;14.45;;;5.80;;
69419;SDS011;71621;52.030;113.516;2023-08-24T02:13:47;15.02;;;4.82;;
69419;SDS011;71621;52.030;113.516;2023-08-24T02:16:50;13.07;;;5.60;;
69419;SDS011;71621;52.030;113.516;2023-08-24T02:19:54;14.73;;;5.00;;
69419;SDS011;71621;52.030;113.516;2023-08-24T02:22:58;12.57;;;5.20;;
69419;SDS011;71621;52.030;113.516;2023-08-24T02:26:02;16.33;;;4.95;;
69419;SDS011;71621;52.030;113.516;2023-08-24T02:29:07;10.90;;;4.82;;
69419;SDS011;71621;52.030;113.516;2023-08-24T02:32:10;18.00;;;4.63;;
69419;SDS011;71621;52.030;113.516;2023-08-24T02:35:13;10.50;;;4.32;;
69419;SDS011;71621;52.030;113.516;2023-08-24T02:38:17;14.48;;;4.32;;
69419;SDS011;71621;52.030;113.516;2023-08-24T02:41:21;16.65;;;4.70;;
69419;SDS011;71621;52.030;113.516;2023-08-24T02:44:24;14.07;;;5.32;;
69419;SDS011;71621;52.030;113.516;2023-08-24T02:47:28;12.73;;;4.23;;
69419;SDS011;71621;52.030;113.516;2023-08-24T02:50:31;14.02;;;4.78;;
69419;SDS011;71621;52.030;113.516;2023-08-24T02:53:35;14.48;;;4.60;;
69419;SDS011;71621;52.030;113.516;2023-08-24T02:56:39;10.65;;;4.05;;
69419;SDS011;71621;52.030;113.516;2023-08-24T02:59:42;15.55;;;4.70;;
69419;SDS011;71621;52.030;113.516;2023-08-24T03:02:47;13.23;;;4.53;;
69419;SDS011;71621;52.030;113.516;2023-08-24T03:06:00;16.60;;;4.40;;
69419;SDS011;71621;52.030;113.516;2023-08-24T03:09:05;12.68;;;4.57;;
69419;SDS011;71621;52.030;113.516;2023-08-24T03:12:08;13.65;;;4.47;;
69419;SDS011;71621;52.030;113.516;2023-08-24T03:15:12;17.38;;;5.05;;
69419;SDS011;71621;52.030;113.516;2023-08-24T03:18:16;15.23;;;4.63;;
69419;SDS011;71621;52.030;113.516;2023-08-24T03:21:20;18.35;;;4.57;;
69419;SDS011;71621;52.030;113.516;2023-08-24T03:24:23;13.30;;;4.72;;
69419;SDS011;71621;52.030;113.516;2023-08-24T03:27:28;14.95;;;5.28;;
69419;SDS011;71621;52.030;113.516;2023-08-24T03:30:31;19.10;;;4.88;;
69419;SDS011;71621;52.030;113.516;2023-08-24T03:33:35;19.03;;;4.93;;
69419;SDS011;71621;52.030;113.516;2023-08-24T03:36:38;22.27;;;4.97;;
69419;SDS011;71621;52.030;113.516;2023-08-24T03:39:42;21.25;;;4.80;;
69419;SDS011;71621;52.030;113.516;2023-08-24T03:42:45;18.17;;;4.53;;
69419;SDS011;71621;52.030;113.516;2023-08-24T03:45:49;17.50;;;4.38;;
69419;SDS011;71621;52.030;113.516;2023-08-24T03:48:52;20.17;;;5.00;;
69419;SDS011;71621;52.030;113.516;2023-08-24T03:51:56;20.65;;;4.70;;
69419;SDS011;71621;52.030;113.516;2023-08-24T03:54:59;18.75;;;5.10;;
69419;SDS011;71621;52.030;113.516;2023-08-24T03:58:03;17.60;;;4.63;;
69419;SDS011;71621;52.030;113.516;2023-08-24T04:01:09;21.98;;;5.40;;
69419;SDS011;71621;52.030;113.516;2023-08-24T04:04:14;18.33;;;5.27;;
69419;SDS011;71621;52.030;113.516;2023-08-24T04:07:17;20.50;;;5.55;;
69419;SDS011;71621;52.030;113.516;2023-08-24T04:10:22;17.10;;;4.85;;
69419;SDS011;71621;52.030;113.516;2023-08-24T04:13:25;21.08;;;4.82;;
69419;SDS011;71621;52.030;113.516;2023-08-24T04:16:29;20.40;;;5.00;;
69419;SDS011;71621;52.030;113.516;2023-08-24T04:19:33;14.43;;;4.43;;
69419;SDS011;71621;52.030;113.516;2023-08-24T04:22:37;21.15;;;4.57;;
69419;SDS011;71621;52.030;113.516;2023-08-24T04:25:41;16.58;;;4.85;;
69419;SDS011;71621;52.030;113.516;2023-08-24T04:28:45;16.40;;;4.22;;
69419;SDS011;71621;52.030;113.516;2023-08-24T04:31:49;18.25;;;5.72;;
69419;SDS011;71621;52.030;113.516;2023-08-24T04:34:53;13.67;;;4.40;;
69419;SDS011;71621;52.030;113.516;2023-08-24T04:37:56;14.07;;;4.28;;
69419;SDS011;71621;52.030;113.516;2023-08-24T04:41:00;15.20;;;4.63;;
69419;SDS011;71621;52.030;113.516;2023-08-24T04:44:04;16.17;;;4.03;;
69419;SDS011;71621;52.030;113.516;2023-08-24T04:47:09;14.20;;;4.03;;
69419;SDS011;71621;52.030;113.516;2023-08-24T04:50:12;11.80;;;3.20;;
69419;SDS011;71621;52.030;113.516;2023-08-24T04:53:17;11.27;;;3.90;;
69419;SDS011;71621;52.030;113.516;2023-08-24T04:56:21;13.85;;;4.07;;
69419;SDS011;71621;52.030;113.516;2023-08-24T04:59:24;12.95;;;4.00;;
69419;SDS011;71621;52.030;113.516;2023-08-24T05:02:28;10.70;;;3.88;;
69419;SDS011;71621;52.030;113.516;2023-08-24T05:05:32;11.53;;;3.33;;
69419;SDS011;71621;52.030;113.516;2023-08-24T05:08:36;12.82;;;4.32;;
69419;SDS011;71621;52.030;113.516;2023-08-24T05:11:40;11.77;;;3.97;;
69419;SDS011;71621;52.030;113.516;2023-08-24T05:14:43;12.02;;;3.80;;
69419;SDS011;71621;52.030;113.516;2023-08-24T05:17:47;16.45;;;3.95;;
69419;SDS011;71621;52.030;113.516;2023-08-24T05:20:51;9.53;;;3.30;;
69419;SDS011;71621;52.030;113.516;2023-08-24T05:23:54;8.70;;;3.38;;
69419;SDS011;71621;52.030;113.516;2023-08-24T05:26:58;11.68;;;3.28;;
69419;SDS011;71621;52.030;113.516;2023-08-24T05:30:02;11.02;;;3.72;;
69419;SDS011;71621;52.030;113.516;2023-08-24T05:33:05;9.95;;;3.65;;
69419;SDS011;71621;52.030;113.516;2023-08-24T05:36:09;9.17;;;3.03;;
69419;SDS011;71621;52.030;113.516;2023-08-24T05:39:13;12.13;;;3.35;;
69419;SDS011;71621;52.030;113.516;2023-08-24T05:42:17;10.23;;;3.30;;
69419;SDS011;71621;52.030;113.516;2023-08-24T05:45:20;9.48;;;3.28;;
69419;SDS011;71621;52.030;113.516;2023-08-24T05:48:27;11.35;;;3.53;;
69419;SDS011;71621;52.030;113.516;2023-08-24T05:51:32;7.60;;;3.27;;
69419;SDS011;71621;52.030;113.516;2023-08-24T05:54:36;8.68;;;2.95;;
69419;SDS011;71621;52.030;113.516;2023-08-24T05:57:40;10.93;;;3.40;;
69419;SDS011;71621;52.030;113.516;2023-08-24T06:00:43;11.65;;;3.72;;
69419;SDS011;71621;52.030;113.516;2023-08-24T06:03:46;7.60;;;2.80;;
69419;SDS011;71621;52.030;113.516;2023-08-24T06:06:50;8.87;;;3.83;;
69419;SDS011;71621;52.030;113.516;2023-08-24T06:09:54;13.27;;;4.30;;
69419;SDS011;71621;52.030;113.516;2023-08-24T06:12:59;15.20;;;4.60;;
69419;SDS011;71621;52.030;113.516;2023-08-24T06:16:04;15.20;;;4.97;;
69419;SDS011;71621;52.030;113.516;2023-08-24T06:19:08;17.88;;;4.35;;
69419;SDS011;71621;52.030;113.516;2023-08-24T06:22:11;17.40;;;4.07;;
69419;SDS011;71621;52.030;113.516;2023-08-24T06:25:15;12.40;;;4.10;;
69419;SDS011;71621;52.030;113.516;2023-08-24T06:28:18;9.52;;;3.97;;
69419;SDS011;71621;52.030;113.516;2023-08-24T06:31:22;6.93;;;2.90;;
69419;SDS011;71621;52.030;113.516;2023-08-24T06:34:26;6.50;;;3.38;;
69419;SDS011;71621;52.030;113.516;2023-08-24T06:37:29;10.10;;;3.87;;
69419;SDS011;71621;52.030;113.516;2023-08-24T06:40:33;8.55;;;4.10;;
69419;SDS011;71621;52.030;113.516;2023-08-24T06:43:36;16.27;;;4.50;;
69419;SDS011;71621;52.030;113.516;2023-08-24T06:46:41;9.15;;;3.65;;
69419;SDS011;71621;52.030;113.516;2023-08-24T06:49:45;12.00;;;5.20;;
69419;SDS011;71621;52.030;113.516;2023-08-24T06:52:49;11.20;;;5.10;;
69419;SDS011;71621;52.030;113.516;2023-08-24T06:55:56;8.00;;;3.58;;
69419;SDS011;71621;52.030;113.516;2023-08-24T06:59:00;8.25;;;3.50;;
69419;SDS011;71621;52.030;113.516;2023-08-24T07:02:04;7.15;;;2.97;;
69419;SDS011;71621;52.030;113.516;2023-08-24T07:05:08;10.15;;;3.13;;
69419;SDS011;71621;52.030;113.516;2023-08-24T07:08:12;8.27;;;3.67;;
69419;SDS011;71621;52.030;113.516;2023-08-24T07:11:16;9.73;;;4.57;;
69419;SDS011;71621;52.030;113.516;2023-08-24T07:14:20;6.18;;;2.78;;
69419;SDS011;71621;52.030;113.516;2023-08-24T07:17:23;7.07;;;2.95;;
69419;SDS011;71621;52.030;113.516;2023-08-24T07:20:27;8.02;;;2.92;;
69419;SDS011;71621;52.030;113.516;2023-08-24T07:23:31;6.10;;;2.70;;
69419;SDS011;71621;52.030;113.516;2023-08-24T07:26:34;6.15;;;2.40;;
69419;SDS011;71621;52.030;113.516;2023-08-24T07:29:38;5.13;;;2.40;;
69419;SDS011;71621;52.030;113.516;2023-08-24T07:32:41;8.00;;;3.30;;
69419;SDS011;71621;52.030;113.516;2023-08-24T07:35:45;12.77;;;3.45;;
69419;SDS011;71621;52.030;113.516;2023-08-24T07:38:49;21.30;;;11.07;;
69419;SDS011;71621;52.030;113.516;2023-08-24T07:41:52;8.82;;;4.25;;
69419;SDS011;71621;52.030;113.516;2023-08-24T07:44:56;7.70;;;3.60;;
69419;SDS011;71621;52.030;113.516;2023-08-24T07:47:59;6.10;;;3.00;;
69419;SDS011;71621;52.030;113.516;2023-08-24T07:51:03;9.40;;;4.18;;
69419;SDS011;71621;52.030;113.516;2023-08-24T07:54:07;7.00;;;2.80;;
69419;SDS011;71621;52.030;113.516;2023-08-24T07:57:11;6.07;;;2.72;;
69419;SDS011;71621;52.030;113.516;2023-08-24T08:00:14;6.95;;;3.90;;
69419;SDS011;71621;52.030;113.516;2023-08-24T08:03:18;6.82;;;3.10;;
69419;SDS011;71621;52.030;113.516;2023-08-24T08:06:22;8.32;;;2.88;;
69419;SDS011;71621;52.030;113.516;2023-08-24T08:09:27;9.80;;;2.97;;
69419;SDS011;71621;52.030;113.516;2023-08-24T08:12:30;7.47;;;2.78;;
69419;SDS011;71621;52.030;113.516;2023-08-24T08:15:35;8.05;;;3.75;;
69419;SDS011;71621;52.030;113.516;2023-08-24T08:18:41;7.22;;;3.22;;
69419;SDS011;71621;52.030;113.516;2023-08-24T08:21:44;6.85;;;2.90;;
69419;SDS011;71621;52.030;113.516;2023-08-24T08:24:48;15.33;;;3.50;;
69419;SDS011;71621;52.030;113.516;2023-08-24T08:27:53;7.40;;;2.90;;
69419;SDS011;71621;52.030;113.516;2023-08-24T08:30:56;18.95;;;9.82;;
69419;SDS011;71621;52.030;113.516;2023-08-24T08:34:00;8.45;;;3.20;;
69419;SDS011;71621;52.030;113.516;2023-08-24T08:37:04;6.07;;;3.33;;
69419;SDS011;71621;52.030;113.516;2023-08-24T08:40:09;7.20;;;2.87;;
69419;SDS011;71621;52.030;113.516;2023-08-24T08:43:13;6.18;;;2.85;;
69419;SDS011;71621;52.030;113.516;2023-08-24T08:46:17;6.63;;;2.90;;
69419;SDS011;71621;52.030;113.516;2023-08-24T08:49:20;5.45;;;2.63;;
69419;SDS011;71621;52.030;113.516;2023-08-24T08:52:24;6.90;;;3.03;;
69419;SDS011;71621;52.030;113.516;2023-08-24T08:55:28;7.00;;;3.23;;
69419;SDS011;71621;52.030;113.516;2023-08-24T08:58:33;7.13;;;3.42;;
69419;SDS011;71621;52.030;113.516;2023-08-24T09:01:40;6.78;;;3.10;;
69419;SDS011;71621;52.030;113.516;2023-08-24T09:04:47;8.05;;;2.90;;
69419;SDS011;71621;52.030;113.516;2023-08-24T09:07:53;8.85;;;4.20;;
69419;SDS011;71621;52.030;113.516;2023-08-24T09:10:58;7.27;;;3.10;;
69419;SDS011;71621;52.030;113.516;2023-08-24T09:14:02;7.22;;;2.40;;
69419;SDS011;71621;52.030;113.516;2023-08-24T09:17:05;6.43;;;2.50;;
69419;SDS011;71621;52.030;113.516;2023-08-24T09:20:09;6.25;;;2.70;;
69419;SDS011;71621;52.030;113.516;2023-08-24T09:23:17;7.85;;;3.95;;
69419;SDS011;71621;52.030;113.516;2023-08-24T09:26:30;6.43;;;2.50;;
69419;SDS011;71621;52.030;113.516;2023-08-24T09:29:36;4.88;;;1.90;;
69419;SDS011;71621;52.030;113.516;2023-08-24T09:32:40;7.82;;;3.25;;
69419;SDS011;71621;52.030;113.516;2023-08-24T09:35:44;8.60;;;4.35;;
69419;SDS011;71621;52.030;113.516;2023-08-24T09:38:49;5.72;;;2.45;;
69419;SDS011;71621;52.030;113.516;2023-08-24T09:41:55;4.90;;;2.03;;
69419;SDS011;71621;52.030;113.516;2023-08-24T09:45:06;3.70;;;1.50;;
69419;SDS011;71621;52.030;113.516;2023-08-24T09:48:12;4.07;;;1.80;;
69419;SDS011;71621;52.030;113.516;2023-08-24T09:51:15;5.30;;;1.80;;
69419;SDS011;71621;52.030;113.516;2023-08-24T09:54:19;4.05;;;1.55;;
69419;SDS011;71621;52.030;113.516;2023-08-24T09:57:28;3.87;;;1.63;;
69419;SDS011;71621;52.030;113.516;2023-08-24T10:00:33;5.20;;;1.40;;
69419;SDS011;71621;52.030;113.516;2023-08-24T10:03:38;4.20;;;1.50;;
69419;SDS011;71621;52.030;113.516;2023-08-24T10:06:44;4.82;;;1.60;;
69419;SDS011;71621;52.030;113.516;2023-08-24T10:09:57;6.38;;;2.75;;
69419;SDS011;71621;52.030;113.516;2023-08-24T10:13:14;7.30;;;2.90;;
69419;SDS011;71621;52.030;113.516;2023-08-24T10:16:24;6.00;;;2.45;;
69419;SDS011;71621;52.030;113.516;2023-08-24T10:19:31;5.97;;;2.28;;
69419;SDS011;71621;52.030;113.516;2023-08-24T10:22:36;5.95;;;2.00;;
69419;SDS011;71621;52.030;113.516;2023-08-24T10:25:41;4.70;;;2.15;;
69419;SDS011;71621;52.030;113.516;2023-08-24T10:28:47;5.13;;;2.13;;
69419;SDS011;71621;52.030;113.516;2023-08-24T10:31:52;5.07;;;2.47;;
69419;SDS011;71621;52.030;113.516;2023-08-24T10:34:57;5.30;;;2.85;;
69419;SDS011;71621;52.030;113.516;2023-08-24T10:38:01;5.97;;;1.70;;
69419;SDS011;71621;52.030;113.516;2023-08-24T10:41:05;4.72;;;1.70;;
69419;SDS011;71621;52.030;113.516;2023-08-24T10:44:09;6.67;;;2.20;;
69419;SDS011;71621;52.030;113.516;2023-08-24T10:47:24;7.18;;;2.75;;
69419;SDS011;71621;52.030;113.516;2023-08-24T10:50:29;5.95;;;3.40;;
69419;SDS011;71621;52.030;113.516;2023-08-24T10:53:38;6.25;;;2.90;;
69419;SDS011;71621;52.030;113.516;2023-08-24T10:56:42;4.50;;;2.50;;
69419;SDS011;71621;52.030;113.516;2023-08-24T11:00:03;4.90;;;1.87;;
69419;SDS011;71621;52.030;113.516;2023-08-24T11:03:14;7.47;;;2.05;;
69419;SDS011;71621;52.030;113.516;2023-08-24T11:06:49;4.60;;;2.17;;
69419;SDS011;71621;52.030;113.516;2023-08-24T11:09:57;6.72;;;1.98;;
69419;SDS011;71621;52.030;113.516;2023-08-24T11:13:05;5.78;;;2.78;;
69419;SDS011;71621;52.030;113.516;2023-08-24T11:16:10;8.57;;;2.43;;
69419;SDS011;71621;52.030;113.516;2023-08-24T11:19:49;5.88;;;2.03;;
69419;SDS011;71621;52.030;113.516;2023-08-24T11:22:55;4.30;;;1.75;;
69419;SDS011;71621;52.030;113.516;2023-08-24T11:25:59;4.45;;;1.80;;
69419;SDS011;71621;52.030;113.516;2023-08-24T11:29:04;3.83;;;1.55;;
69419;SDS011;71621;52.030;113.516;2023-08-24T11:32:08;5.20;;;2.10;;
69419;SDS011;71621;52.030;113.516;2023-08-24T11:35:12;5.13;;;1.52;;
69419;SDS011;71621;52.030;113.516;2023-08-24T11:38:16;5.88;;;2.30;;
69419;SDS011;71621;52.030;113.516;2023-08-24T11:41:23;5.63;;;2.00;;
69419;SDS011;71621;52.030;113.516;2023-08-24T11:44:28;5.13;;;1.90;;
69419;SDS011;71621;52.030;113.516;2023-08-24T11:47:32;4.50;;;1.77;;
69419;SDS011;71621;52.030;113.516;2023-08-24T11:50:37;4.00;;;1.60;;
69419;SDS011;71621;52.030;113.516;2023-08-24T11:53:42;5.75;;;1.85;;
69419;SDS011;71621;52.030;113.516;2023-08-24T11:56:46;4.13;;;1.88;;
69419;SDS011;71621;52.030;113.516;2023-08-24T11:59:51;4.90;;;1.73;;
69419;SDS011;71621;52.030;113.516;2023-08-24T12:02:57;7.50;;;3.50;;
69419;SDS011;71621;52.030;113.516;2023-08-24T12:06:01;10.50;;;2.30;;
69419;SDS011;71621;52.030;113.516;2023-08-24T12:09:12;5.57;;;2.03;;
69419;SDS011;71621;52.030;113.516;2023-08-24T12:12:18;6.35;;;1.65;;
69419;SDS011;71621;52.030;113.516;2023-08-24T12:15:23;5.80;;;2.30;;
69419;SDS011;71621;52.030;113.516;2023-08-24T12:18:27;8.37;;;3.47;;
69419;SDS011;71621;52.030;113.516;2023-08-24T12:21:30;9.80;;;4.28;;
69419;SDS011;71621;52.030;113.516;2023-08-24T12:24:34;9.63;;;4.10;;
69419;SDS011;71621;52.030;113.516;2023-08-24T12:27:38;9.93;;;4.80;;
69419;SDS011;71621;52.030;113.516;2023-08-24T12:30:45;10.40;;;4.78;;
69419;SDS011;71621;52.030;113.516;2023-08-24T12:34:01;10.83;;;5.37;;
69419;SDS011;71621;52.030;113.516;2023-08-24T12:37:06;11.50;;;5.22;;
69419;SDS011;71621;52.030;113.516;2023-08-24T12:40:09;11.25;;;5.50;;
69419;SDS011;71621;52.030;113.516;2023-08-24T12:43:13;11.75;;;5.60;;
69419;SDS011;71621;52.030;113.516;2023-08-24T12:46:17;13.68;;;5.38;;
69419;SDS011;71621;52.030;113.516;2023-08-24T12:49:20;10.03;;;4.80;;
69419;SDS011;71621;52.030;113.516;2023-08-24T12:52:24;13.05;;;6.43;;
69419;SDS011;71621;52.030;113.516;2023-08-24T12:55:28;9.13;;;3.88;;
69419;SDS011;71621;52.030;113.516;2023-08-24T12:58:32;8.68;;;3.47;;
69419;SDS011;71621;52.030;113.516;2023-08-24T13:01:35;11.02;;;6.28;;
69419;SDS011;71621;52.030;113.516;2023-08-24T13:04:39;21.10;;;11.83;;
69419;SDS011;71621;52.030;113.516;2023-08-24T13:07:43;10.57;;;5.88;;
69419;SDS011;71621;52.030;113.516;2023-08-24T13:10:46;7.00;;;3.33;;
69419;SDS011;71621;52.030;113.516;2023-08-24T13:13:50;45.75;;;19.83;;
69419;SDS011;71621;52.030;113.516;2023-08-24T13:16:54;28.70;;;13.48;;
69419;SDS011;71621;52.030;113.516;2023-08-24T13:19:58;37.13;;;16.70;;
69419;SDS011;71621;52.030;113.516;2023-08-24T13:23:03;64.18;;;36.45;;
69419;SDS011;71621;52.030;113.516;2023-08-24T13:26:16;35.50;;;21.85;;
69419;SDS011;71621;52.030;113.516;2023-08-24T13:29:21;9.38;;;4.63;;
69419;SDS011;71621;52.030;113.516;2023-08-24T13:32:25;6.90;;;2.92;;
69419;SDS011;71621;52.030;113.516;2023-08-24T13:35:29;16.33;;;5.57;;
69419;SDS011;71621;52.030;113.516;2023-08-24T13:38:33;91.55;;;42.90;;
69419;SDS011;71621;52.030;113.516;2023-08-24T13:41:36;54.45;;;26.05;;
69419;SDS011;71621;52.030;113.516;2023-08-24T13:44:44;51.15;;;25.95;;
69419;SDS011;71621;52.030;113.516;2023-08-24T13:47:48;61.75;;;33.42;;
69419;SDS011;71621;52.030;113.516;2023-08-24T13:50:52;51.50;;;24.83;;
69419;SDS011;71621;52.030;113.516;2023-08-24T13:53:56;31.08;;;16.02;;
69419;SDS011;71621;52.030;113.516;2023-08-24T13:56:59;19.85;;;8.45;;
69419;SDS011;71621;52.030;113.516;2023-08-24T14:00:04;17.40;;;5.47;;
69419;SDS011;71621;52.030;113.516;2023-08-24T14:03:13;9.95;;;5.40;;
69419;SDS011;71621;52.030;113.516;2023-08-24T14:06:16;10.83;;;6.07;;
69419;SDS011;71621;52.030;113.516;2023-08-24T14:09:20;13.90;;;6.20;;
69419;SDS011;71621;52.030;113.516;2023-08-24T14:12:24;17.02;;;6.15;;
69419;SDS011;71621;52.030;113.516;2023-08-24T14:15:28;14.82;;;5.95;;
69419;SDS011;71621;52.030;113.516;2023-08-24T14:18:31;15.80;;;7.38;;
69419;SDS011;71621;52.030;113.516;2023-08-24T14:21:35;21.37;;;8.30;;
69419;SDS011;71621;52.030;113.516;2023-08-24T14:24:46;17.42;;;7.07;;
69419;SDS011;71621;52.030;113.516;2023-08-24T14:27:50;15.02;;;6.78;;
69419;SDS011;71621;52.030;113.516;2023-08-24T14:31:06;16.50;;;7.28;;
69419;SDS011;71621;52.030;113.516;2023-08-24T14:34:10;13.98;;;7.28;;
69419;SDS011;71621;52.030;113.516;2023-08-24T14:37:14;15.63;;;7.87;;
69419;SDS011;71621;52.030;113.516;2023-08-24T14:40:20;17.70;;;9.38;;
69419;SDS011;71621;52.030;113.516;2023-08-24T14:43:23;17.63;;;8.05;;
69419;SDS011;71621;52.030;113.516;2023-08-24T14:46:27;18.83;;;8.00;;
69419;SDS011;71621;52.030;113.516;2023-08-24T14:49:30;16.92;;;8.07;;
69419;SDS011;71621;52.030;113.516;2023-08-24T14:52:35;30.13;;;12.63;;
69419;SDS011;71621;52.030;113.516;2023-08-24T14:55:38;22.20;;;9.82;;
69419;SDS011;71621;52.030;113.516;2023-08-24T14:58:43;15.93;;;7.35;;
69419;SDS011;71621;52.030;113.516;2023-08-24T15:01:46;18.23;;;6.60;;
69419;SDS011;71621;52.030;113.516;2023-08-24T15:04:50;17.35;;;6.68;;
69419;SDS011;71621;52.030;113.516;2023-08-24T15:07:53;19.23;;;7.53;;
69419;SDS011;71621;52.030;113.516;2023-08-24T15:10:57;15.55;;;6.78;;
69419;SDS011;71621;52.030;113.516;2023-08-24T15:14:02;16.73;;;6.65;;
69419;SDS011;71621;52.030;113.516;2023-08-24T15:17:05;15.48;;;6.68;;
69419;SDS011;71621;52.030;113.516;2023-08-24T15:20:09;13.95;;;6.22;;
69419;SDS011;71621;52.030;113.516;2023-08-24T15:26:28;13.57;;;4.28;;
69419;SDS011;71621;52.030;113.516;2023-08-24T15:29:32;13.05;;;4.45;;
69419;SDS011;71621;52.030;113.516;2023-08-24T15:32:35;13.07;;;4.05;;
69419;SDS011;71621;52.030;113.516;2023-08-24T15:35:39;9.75;;;4.43;;
69419;SDS011;71621;52.030;113.516;2023-08-24T15:38:44;11.97;;;4.57;;
69419;SDS011;71621;52.030;113.516;2023-08-24T15:41:48;10.43;;;4.32;;
69419;SDS011;71621;52.030;113.516;2023-08-24T15:44:51;14.98;;;5.55;;
69419;SDS011;71621;52.030;113.516;2023-08-24T15:47:55;11.43;;;5.43;;
69419;SDS011;71621;52.030;113.516;2023-08-24T15:50:59;9.50;;;5.00;;
69419;SDS011;71621;52.030;113.516;2023-08-24T15:54:03;16.30;;;5.37;;
69419;SDS011;71621;52.030;113.516;2023-08-24T15:57:07;13.00;;;4.43;;
69419;SDS011;71621;52.030;113.516;2023-08-24T16:00:12;12.18;;;4.18;;
69419;SDS011;71621;52.030;113.516;2023-08-24T16:03:16;10.98;;;4.68;;
69419;SDS011;71621;52.030;113.516;2023-08-24T16:06:20;11.30;;;3.75;;
69419;SDS011;71621;52.030;113.516;2023-08-24T16:09:23;10.00;;;3.93;;
69419;SDS011;71621;52.030;113.516;2023-08-24T16:12:27;10.25;;;4.30;;
69419;SDS011;71621;52.030;113.516;2023-08-24T16:15:30;8.93;;;3.92;;
69419;SDS011;71621;52.030;113.516;2023-08-24T16:18:34;11.38;;;4.78;;
69419;SDS011;71621;52.030;113.516;2023-08-24T16:21:38;10.95;;;4.72;;
69419;SDS011;71621;52.030;113.516;2023-08-24T16:24:41;10.93;;;4.53;;
69419;SDS011;71621;52.030;113.516;2023-08-24T16:27:45;21.52;;;11.07;;
69419;SDS011;71621;52.030;113.516;2023-08-24T16:30:49;13.27;;;5.65;;
69419;SDS011;71621;52.030;113.516;2023-08-24T16:33:52;13.68;;;5.63;;
69419;SDS011;71621;52.030;113.516;2023-08-24T16:36:56;12.38;;;5.22;;
69419;SDS011;71621;52.030;113.516;2023-08-24T16:39:59;15.80;;;5.00;;
69419;SDS011;71621;52.030;113.516;2023-08-24T16:43:03;13.85;;;5.60;;
69419;SDS011;71621;52.030;113.516;2023-08-24T16:46:06;15.85;;;5.20;;
69419;SDS011;71621;52.030;113.516;2023-08-24T16:49:10;13.30;;;4.97;;
69419;SDS011;71621;52.030;113.516;2023-08-24T16:52:14;13.85;;;4.75;;
69419;SDS011;71621;52.030;113.516;2023-08-24T16:55:17;11.80;;;5.43;;
69419;SDS011;71621;52.030;113.516;2023-08-24T16:58:21;14.15;;;5.47;;
69419;SDS011;71621;52.030;113.516;2023-08-24T17:01:25;11.18;;;4.38;;
69419;SDS011;71621;52.030;113.516;2023-08-24T17:04:29;12.15;;;3.92;;
69419;SDS011;71621;52.030;113.516;2023-08-24T17:07:33;14.75;;;4.53;;
69419;SDS011;71621;52.030;113.516;2023-08-24T17:10:41;10.60;;;4.53;;
69419;SDS011;71621;52.030;113.516;2023-08-24T17:13:44;10.05;;;4.05;;
69419;SDS011;71621;52.030;113.516;2023-08-24T17:16:48;13.48;;;4.72;;
69419;SDS011;71621;52.030;113.516;2023-08-24T17:19:51;10.52;;;4.20;;
69419;SDS011;71621;52.030;113.516;2023-08-24T17:22:55;8.32;;;3.40;;
69419;SDS011;71621;52.030;113.516;2023-08-24T17:25:58;9.10;;;4.23;;
69419;SDS011;71621;52.030;113.516;2023-08-24T17:29:02;10.80;;;4.10;;
69419;SDS011;71621;52.030;113.516;2023-08-24T17:32:05;10.98;;;3.78;;
69419;SDS011;71621;52.030;113.516;2023-08-24T17:35:09;7.88;;;3.70;;
69419;SDS011;71621;52.030;113.516;2023-08-24T17:38:13;10.48;;;3.92;;
69419;SDS011;71621;52.030;113.516;2023-08-24T17:41:16;7.53;;;3.50;;
69419;SDS011;71621;52.030;113.516;2023-08-24T17:44:20;10.82;;;4.00;;
69419;SDS011;71621;52.030;113.516;2023-08-24T17:47:24;9.90;;;3.90;;
69419;SDS011;71621;52.030;113.516;2023-08-24T17:50:27;11.35;;;4.40;;
69419;SDS011;71621;52.030;113.516;2023-08-24T17:53:31;8.82;;;3.80;;
69419;SDS011;71621;52.030;113.516;2023-08-24T17:56:34;11.83;;;4.83;;
69419;SDS011;71621;52.030;113.516;2023-08-24T17:59:38;10.88;;;3.70;;